• Join FlightAware (Why Join?)
  • Login
  • US Flag 
09:30AM EST


 

Airport Tracker/Info


-or-


 

Live Flight TrackerFlight Track Log ✈ AMX682 ✈ 26-Jun-2013 ✈ MMMX / MEX - KORD

Flight Track Log - Related Links

Times and Time Zones

All times are in EDT time to prevent confusion due to time zone crossing. See the AMX682 flight status page for this flight to view local times or setup timezone preferences in your user account.

Time Position Orientation Groundspeed Altitude Reporting Facility
EDT Latitude Longitude Course Direction KTS MPH feet Rate Location/Type
09:13PM 24.9719 -97.2356 12° North 409 471 38,900  Level Houston Center
09:14PM 25.0847 -97.2100 12° North 412 474 39,000  Climbing Houston Center
09:15PM 25.1953 -97.1861 11° North 411 473 39,000  Level Houston Center
09:16PM 25.3314 -97.1517 13° North 413 475 39,000  Level Houston Center
09:17PM 25.4439 -97.1253 12° North 413 475 39,000  Level Houston Center
09:18PM 25.5639 -97.0961 12° North 413 475 39,000  Level Houston Center
09:19PM 25.6772 -97.0714 11° North 415 478 39,000  Level Houston Center
09:21PM 25.7997 -97.0447 11° North 416 479 39,000  Level Houston Center
09:22PM 25.9136 -97.0194 11° North 416 479 39,000  Level Houston Center
09:23PM 26.0278 -96.9950 11° North 418 481 39,000  Level Houston Center
09:24PM 26.1425 -96.9747 North 417 480 39,000  Level Houston Center
09:25PM 26.2656 -96.9500 10° North 418 481 39,000  Level Houston Center
09:26PM 26.3806 -96.9286 North 419 482 39,000  Level Houston Center
09:27PM 26.4947 -96.9061 10° North 418 481 39,000  Level Houston Center
09:28PM 26.6175 -96.8828 10° North 416 479 39,000  Level Houston Center
09:29PM 26.7178 -96.8628 10° North 412 474 39,000 -60 Level Houston Center
09:30PM 26.8311 -96.8403 10° North 412 474 38,900  Descending Houston Center
09:31PM 26.9439 -96.8189 10° North 411 473 39,000  Climbing Houston Center
09:32PM 27.0567 -96.7967 10° North 412 474 39,000  Level Houston Center
09:33PM 27.1847 -96.7708 10° North 415 478 39,000  Level Houston Center
09:34PM 27.2994 -96.7489 10° North 418 481 39,000  Level Houston Center
09:35PM 27.4139 -96.7258 10° North 418 481 39,000  Level Houston Center
09:36PM 27.5289 -96.7036 10° North 418 481 39,000  Level Houston Center
09:37PM 27.6444 -96.6808 10° North 421 484 39,000  Level Houston Center
09:38PM 27.7606 -96.6561 11° North 423 487 39,000 -60 Level Houston Center
09:39PM 27.9000 -96.6289 10° North 423 487 38,900  Descending Houston Center
09:40PM 28.0158 -96.6067 10° North 423 487 39,000  Climbing Houston Center
09:41PM 28.1311 -96.5836 10° North 422 486 39,000  Level Houston Center
09:42PM 28.2478 -96.5600 10° North 425 489 39,000  Level Houston Center
09:43PM 28.3633 -96.5386 North 423 487 39,000  Level Houston Center
09:44PM 28.4786 -96.5147 10° North 421 484 39,000 -60 Level Houston Center
09:45PM 28.5939 -96.4903 11° North 422 486 38,900  Descending Houston Center
09:46PM 28.7089 -96.4681 10° North 420 483 39,000  Climbing Houston Center
09:47PM 28.8469 -96.4389 10° North 422 486 39,000  Level Houston Center
09:48PM 28.9622 -96.4156 10° North 423 487 39,000  Level Houston Center
09:49PM 29.0778 -96.3917 10° North 425 489 39,000  Level Houston Center
09:50PM 29.1956 -96.3686 10° North 430 495 39,000  Level Houston Center
09:51PM 29.3131 -96.3456 10° North 433 498 39,000  Level Houston Center
09:52PM 29.4303 -96.3214 10° North 431 496 39,000 -60 Level Houston Center
09:53PM 29.5475 -96.2972 10° North 432 497 38,900 -60 Descending Houston Center
09:54PM 29.6639 -96.2736 10° North 428 493 38,900  Level Houston Center
09:55PM 29.8050 -96.2453 10° North 431 496 39,000  Climbing Houston Center
09:56PM 29.9222 -96.2211 10° North 430 495 39,000 -60 Level Houston Center
09:57PM 30.0392 -96.1975 10° North 428 493 38,900  Descending Houston Center
09:58PM 30.1658 -96.1689 11° North 427 491 39,000  Climbing Houston Center
09:59PM 30.2825 -96.1453 10° North 423 487 39,000  Level Houston Center
10:00PM 30.4011 -96.1194 11° North 427 491 39,000  Level Houston Center
10:01PM 30.5169 -96.0944 11° North 423 487 39,000  Level Houston Center
10:02PM 30.6356 -96.0697 10° North 426 490 39,000  Level Houston Center
10:03PM 30.7556 -96.0486 North 424 488 39,000  Level Houston Center
10:04PM 30.8761 -96.0222 11° North 432 497 39,000  Level Houston Center
10:05PM 30.9956 -95.9972 10° North 434 499 39,000  Level Houston Center
10:06PM 31.1156 -95.9731 10° North 437 503 39,000  Level Houston Center
10:08PM 31.2378 -95.9961 351° North 439 505 39,000  Level Houston Center
10:09PM 31.3606 -96.0239 349° North 444 511 39,000  Level Houston Center
10:10PM 31.4819 -96.0508 349° North 443 510 39,000  Level Houston Center
10:11PM 31.6039 -96.0806 348° North 445 512 39,000  Level Houston Center
10:12PM 31.7558 -96.1161 349° North 443 510 39,000  Level Fort Worth Center
10:13PM 31.8792 -96.1436 349° North 443 510 39,000  Level Fort Worth Center
10:14PM 31.9817 -96.1717 347° North 449 517 39,000  Level Fort Worth Center
10:15PM 32.1031 -96.1994 349° North 438 504 39,000  Level Fort Worth Center
10:16PM 32.2264 -96.2222 351° North 438 504 39,000  Level Fort Worth Center
10:17PM 32.3497 -96.2208 North 438 504 39,000  Level Fort Worth Center
10:18PM 32.4728 -96.2214 360° North 438 504 39,000  Level Fort Worth Center
10:19PM 32.5981 -96.2222 360° North 443 510 39,000  Level Fort Worth Center
10:20PM 32.7214 -96.2256 359° North 437 503 39,000  Level Fort Worth Center
10:21PM 32.8444 -96.2242 North 437 503 39,000  Level Fort Worth Center
10:22PM 32.9656 -96.2275 359° North 437 503 39,000  Level Fort Worth Center
10:23PM 33.0886 -96.2258 North 437 503 39,000  Level Fort Worth Center
10:24PM 33.2097 -96.2292 359° North 437 503 39,000  Level Fort Worth Center
10:25PM 33.3289 -96.2300 360° North 437 503 39,000  Level Fort Worth Center
10:26PM 33.4478 -96.2308 360° North 437 503 39,000  Level Fort Worth Center
10:27PM 33.5833 -96.2267 North 437 503 39,000  Level Fort Worth Center
10:28PM 33.7042 -96.2050 North 437 503 39,000  Level Fort Worth Center
10:29PM 33.8253 -96.1883 North 443 510 39,000  Level Fort Worth Center
10:30PM 33.9461 -96.1692 North 438 504 39,000  Level Fort Worth Center
10:31PM 34.0669 -96.1497 North 438 504 39,000  Level Fort Worth Center
10:32PM 34.1689 -96.1333 North 428 493 39,000  Level Fort Worth Center
10:33PM 34.2878 -96.1139 North 423 487 39,000  Level Fort Worth Center
10:34PM 34.4064 -96.0944 North 423 487 39,000  Level Fort Worth Center
10:35PM 34.5250 -96.0725 North 428 493 39,000  Level Fort Worth Center
10:36PM 34.6458 -96.0531 North 428 493 39,000  Level Fort Worth Center
10:37PM 34.7667 -96.0308 North 428 493 39,000  Level Fort Worth Center
10:38PM 34.8833 -96.0114 North 428 493 39,000  Level Fort Worth Center
10:39PM 35.0039 -95.9917 North 428 493 39,000  Level Fort Worth Center
10:40PM 35.1228 -95.9719 North 423 487 39,000  Level Fort Worth Center
10:42PM 35.3878 -95.9256 North 430 495 39,000  Level Kansas City Center
10:43PM 35.5078 -95.9058 North 432 497 39,000  Level Kansas City Center
10:44PM 35.6278 -95.8844 North 434 499 39,000  Level Kansas City Center
10:45PM 35.7486 -95.8644 North 436 502 39,000  Level Kansas City Center
10:46PM 35.8683 -95.8436 North 435 501 39,000  Level Kansas City Center
10:47PM 35.9894 -95.8231 North 436 502 39,000  Level Kansas City Center
10:48PM 36.1094 -95.8031 North 434 499 39,000  Level Kansas City Center
10:49PM 36.2531 -95.7717 10° North 435 501 39,000  Level Kansas City Center
10:50PM 36.3472 -95.7139 26° Northeast 434 499 39,000  Level Kansas City Center
10:51PM 36.4497 -95.6347 32° Northeast 435 501 39,000  Level Kansas City Center
10:52PM 36.5744 -95.5397 31° Northeast 439 505 39,000  Level Kansas City Center
10:53PM 36.6764 -95.4586 33° Northeast 434 499 39,000  Level Kansas City Center
10:54PM 36.7767 -95.3786 33° Northeast 427 491 39,000  Level Kansas City Center
10:55PM 36.8728 -95.2925 36° Northeast 426 490 39,000  Level Kansas City Center
10:56PM 36.9603 -95.1925 42° Northeast 425 489 39,000  Level Kansas City Center
10:57PM 37.0500 -95.0964 41° Northeast 424 488 39,000  Level Kansas City Center
10:58PM 37.1511 -95.0219 30° Northeast 421 484 39,000  Level Kansas City Center
10:59PM 37.2506 -94.9461 31° Northeast 418 481 39,000  Level Kansas City Center
11:00PM 37.3494 -94.8653 33° Northeast 422 486 39,000  Level Kansas City Center
11:01PM 37.4669 -94.7736 32° Northeast 415 478 39,000  Level Kansas City Center
11:02PM 37.5644 -94.6958 32° Northeast 413 475 39,000  Level Kansas City Center
11:03PM 37.6636 -94.6189 32° Northeast 415 478 39,000  Level Kansas City Center
11:04PM 37.7631 -94.5411 32° Northeast 418 481 39,000  Level Kansas City Center
11:05PM 37.8589 -94.4639 32° Northeast 423 487 39,000  Level Kansas City Center
11:06PM 37.9692 -94.3689 34° Northeast 428 493 39,000  Level Kansas City Center
11:08PM 38.0544 -94.2717 42° Northeast 431 496 39,000  Level Kansas City Center
11:09PM 38.1550 -94.1617 41° Northeast 429 494 39,000  Level Kansas City Center
11:10PM 38.2383 -94.0708 41° Northeast 431 496 39,000  Level Kansas City Center
11:11PM 38.3306 -93.9703 41° Northeast 433 498 39,000  Level Kansas City Center
11:12PM 38.4372 -93.8500 41° Northeast 428 493 39,000  Level Kansas City Center
11:13PM 38.5267 -93.7517 41° Northeast 425 489 39,000  Level Kansas City Center
11:14PM 38.6169 -93.6511 41° Northeast 426 490 39,000  Level Kansas City Center
11:15PM 38.7056 -93.5500 42° Northeast 425 489 39,000  Level Kansas City Center
11:16PM 38.7956 -93.4511 41° Northeast 426 490 39,000  Level Kansas City Center
11:17PM 38.8853 -93.3486 42° Northeast 426 490 39,000  Level Kansas City Center
11:18PM 38.9742 -93.2472 42° Northeast 425 489 39,000  Level Kansas City Center
11:19PM 39.0647 -93.1436 42° Northeast 419 482 39,000  Level Kansas City Center
11:20PM 39.1525 -93.0442 41° Northeast 422 486 39,000  Level Kansas City Center
11:21PM 39.2411 -92.9433 41° Northeast 427 491 39,000  Level Kansas City Center
11:22PM 39.3286 -92.8428 42° Northeast 427 491 39,000  Level Kansas City Center
11:23PM 39.4358 -92.7219 41° Northeast 428 493 39,000 -900 Level Kansas City Center
11:24PM 39.5236 -92.6189 42° Northeast 429 494 37,200 -1,020 Descending Kansas City Center
11:25PM 39.6097 -92.5189 42° Northeast 425 489 37,000 -120 Descending Kansas City Center
11:26PM 39.6981 -92.4183 41° Northeast 426 490 37,000 -240 Level Kansas City Center
11:27PM 39.7844 -92.3169 42° Northeast 426 490 36,600 -1,860 Descending Kansas City Center
11:28PM 39.8919 -92.1914 42° Northeast 435 501 33,200 -1,800 Descending Kansas City Center
11:29PM 39.9806 -92.0858 42° Northeast 438 504 33,000 -120 Descending Kansas City Center
11:30PM 40.0697 -91.9806 42° Northeast 439 505 33,000  Level Kansas City Center
11:31PM 40.1578 -91.8753 42° Northeast 438 504 33,000  Level Kansas City Center
11:32PM 40.2478 -91.7689 42° Northeast 439 505 33,000  Level Kansas City Center
11:33PM 40.3544 -91.6411 42° Northeast 439 505 33,000  Level Kansas City Center
11:34PM 40.4425 -91.5353 42° Northeast 437 503 33,000 -660 Level Kansas City Center
11:35PM 40.5325 -91.4261 43° Northeast 441 507 31,700 -1,980 Descending Kansas City Center
11:36PM 40.5978 -91.2700 61° Northeast 467 537 29,000 -1,320 Descending Kansas City Center
11:37PM 40.6528 -91.1131 65° Northeast 472 543 29,000  Level Kansas City Center
11:38PM 40.7064 -90.9547 66° East 473 544 29,000  Level Kansas City Center
11:39PM 40.7600 -90.7969 66° East 472 543 29,000  Level Kansas City Center
11:40PM 40.8139 -90.6378 66° East 474 545 29,000  Level Kansas City Center
11:41PM 40.8683 -90.4783 66° East 476 548 29,000 -60 Level Chicago Center
11:42PM 40.9231 -90.3164 66° East 479 551 28,900 -840 Descending Chicago Center
11:43PM 40.9714 -90.1625 67° East 448 516 27,300 -1,080 Descending Chicago Center
11:44PM 41.0231 -90.0103 66° East 440 506 26,800 -1,140 Descending Chicago Center
11:45PM 41.0717 -89.8631 66° East 431 496 25,000 -1,860 Descending Chicago Center
11:46PM 41.1167 -89.7236 67° East 411 473 23,100 -2,100 Descending Chicago Center
11:47PM 41.1697 -89.5636 66° East 393 452 20,800 -2,040 Descending Chicago Center
11:49PM 41.2208 -89.4417 61° Northeast 379 436 19,000 -1,140 Descending Chicago Center
11:50PM 41.2681 -89.3217 62° Northeast 366 421 18,500 -1,380 Descending Chicago Center
11:51PM 41.3158 -89.2028 62° Northeast 366 421 16,200 -1,620 Descending Chicago Center
11:52PM 41.3556 -89.0989 63° Northeast 354 407 15,200 -1,500 Descending Chicago Center
11:53PM 41.4122 -88.9611 61° Northeast 352 405 13,200 -1,140 Descending Chicago Center
11:54PM 41.4572 -88.8497 62° Northeast 345 397 13,000 -600 Descending Chicago Center
11:55PM 41.5006 -88.7403 62° Northeast 338 389 12,000 -600 Descending Chicago Center
11:56PM 41.5425 -88.6325 62° Northeast 331 381 11,800 -360 Descending Chicago Center
11:57PM 41.5836 -88.5256 63° Northeast 325 374 11,300 -420 Descending Chicago Center
11:58PM 41.6331 -88.4247 57° Northeast 325 374 11,000 -420 Descending Chicago Center
11:59PM 41.6858 -88.3333 52° Northeast 312 359 10,500 -960 Descending Chicago Center
12:00AM 41.7361 -88.2489 51° Northeast 294 338 9,100 -1,440 Descending Chicago Center
12:01AM 41.7844 -88.1653 52° Northeast 284 327 7,600 -1,080 Descending Chicago Center
12:02AM 41.8403 -88.0692 52° Northeast 275 316 7,000 -300 Descending Chicago Center
12:03AM 41.8831 -87.9847 56° Northeast 274 315 7,000  Level Chicago Center
12:04AM 41.8842 -87.8786 89° East 283 326 7,000 -780 Level Chicago Center
12:05AM 41.8850 -87.7694 89° East 287 330 5,500 -1,320 Descending Chicago Center
12:06AM 41.8839 -87.6692 91° East 279 321 4,400 -780 Descending Chicago Center
12:07AM 41.9325 -87.6411 23° Northeast 248 285 4,000 -300 Descending Chicago Center
12:08AM 41.9661 -87.7006 307° West 254 292 3,900 -840 Descending Chicago Center
12:09AM 41.9692 -87.7772 273° West 229 264 2,300 -1,320 Descending Chicago Center
12:10AM 41.9703 -87.8561 271° West 201 231 1,300 -1,020 Descending Chicago Center
12:12AM 41.9667 -87.9000 296° West  Level FlightAware Approximate